DLH494 EDDM-CYYZ
Flight info
| Callsign | DLH494 |
|---|---|
| Flight time | N/A |
| Altitude | 38000 |
| Route | GIVMI6S GIVMI Y101 INBED DCT REKDI DCT LOHRE DCT ADKUV DCT LENDO DCT SOGRI DCT DENUT L610 KOPUL DCT SABER DCT SIVDA DCT RODOL UL28 PENIL DCT DEJEM/N0482F400 DCT OZRAT DCT WETFI DCT ASKUP DCT TUGSI DCT REVNU DCT RESNO/M084F390 NATB LOMSI/N0492F400 N672A ANATI Q812 MAIRE DCT OBTAX Q824 LETAK IMEBA9 |
| Aircraft | A359/H-SADE2E3GHIJ1J2J3J4J5M1P2RWXYZ/LB1D1 |
Departure
| Time | N/A |
|---|---|
| Airport | Munich Airport (EDDM) |
Arrival
| Time | 2026-05-04 20:07 |
|---|---|
| Airport | Toronto Pearson International Airport (CYYZ) |
| Time | Latitude | Longitude | Altitude | Speed | Heading |
|---|---|---|---|---|---|
| 2026-05-04 19:34 | 45.37816 | -76.44897 | 37710 ft | 420 kts | 263° |
| 2026-05-04 19:34 | 45.37334 | -76.48990 | 37654 ft | 420 kts | 263° |
| 2026-05-04 19:34 | 45.36848 | -76.53090 | 37222 ft | 420 kts | 263° |
| 2026-05-04 19:35 | 45.36353 | -76.57174 | 36690 ft | 418 kts | 263° |
| 2026-05-04 19:35 | 45.35846 | -76.61229 | 36184 ft | 415 kts | 263° |
| 2026-05-04 19:35 | 45.35328 | -76.65256 | 35662 ft | 416 kts | 263° |
| 2026-05-04 19:35 | 45.34785 | -76.69369 | 35173 ft | 431 kts | 263° |
| 2026-05-04 19:36 | 45.34020 | -76.73524 | 34903 ft | 438 kts | 256° |
| 2026-05-04 19:36 | 45.31259 | -76.81389 | 34745 ft | 452 kts | 241° |
| 2026-05-04 19:36 | 45.29412 | -76.84998 | 34502 ft | 452 kts | 239° |
| 2026-05-04 19:37 | 45.27523 | -76.88554 | 34261 ft | 450 kts | 239° |
| 2026-05-04 19:37 | 45.25638 | -76.92090 | 34030 ft | 448 kts | 239° |
| 2026-05-04 19:37 | 45.23788 | -76.95560 | 33796 ft | 445 kts | 239° |
| 2026-05-04 19:37 | 45.21927 | -76.99052 | 33489 ft | 443 kts | 239° |
| 2026-05-04 19:38 | 45.20075 | -77.02525 | 33198 ft | 441 kts | 239° |
| 2026-05-04 19:38 | 45.18207 | -77.06026 | 32940 ft | 439 kts | 239° |
| 2026-05-04 19:38 | 45.16389 | -77.09429 | 32683 ft | 437 kts | 239° |
| 2026-05-04 19:38 | 45.14560 | -77.12848 | 32400 ft | 435 kts | 239° |
| 2026-05-04 19:39 | 45.12738 | -77.16252 | 32121 ft | 433 kts | 239° |
| 2026-05-04 19:39 | 45.10923 | -77.19638 | 31863 ft | 431 kts | 239° |
| 2026-05-04 19:39 | 45.09112 | -77.23011 | 31597 ft | 429 kts | 239° |
| 2026-05-04 19:39 | 45.07310 | -77.26366 | 31317 ft | 427 kts | 239° |
| 2026-05-04 19:40 | 45.05516 | -77.29701 | 31055 ft | 424 kts | 239° |
| 2026-05-04 19:40 | 45.03732 | -77.33011 | 30802 ft | 422 kts | 239° |
| 2026-05-04 19:40 | 45.01954 | -77.36310 | 30731 ft | 422 kts | 239° |
| 2026-05-04 19:41 | 44.98401 | -77.42892 | 30724 ft | 421 kts | 239° |
| 2026-05-04 19:41 | 44.94845 | -77.49461 | 30730 ft | 421 kts | 239° |
| 2026-05-04 19:42 | 44.91287 | -77.56017 | 30729 ft | 421 kts | 239° |
| 2026-05-04 19:42 | 44.87726 | -77.62567 | 30718 ft | 421 kts | 239° |
| 2026-05-04 19:43 | 44.84181 | -77.69069 | 30723 ft | 421 kts | 239° |
| 2026-05-04 19:43 | 44.80606 | -77.75612 | 30721 ft | 421 kts | 239° |
| 2026-05-04 19:44 | 44.77033 | -77.82142 | 30718 ft | 420 kts | 239° |
| 2026-05-04 19:44 | 44.73944 | -77.89009 | 30710 ft | 414 kts | 246° |
| 2026-05-04 19:45 | 44.71530 | -77.94884 | 30727 ft | 414 kts | 246° |
| 2026-05-04 19:45 | 44.68658 | -78.01844 | 30725 ft | 414 kts | 245° |
| 2026-05-04 19:46 | 44.65761 | -78.08841 | 30729 ft | 414 kts | 245° |
| 2026-05-04 19:46 | 44.62856 | -78.15832 | 30722 ft | 414 kts | 245° |
| 2026-05-04 19:47 | 44.59961 | -78.22778 | 29959 ft | 410 kts | 245° |
| 2026-05-04 19:47 | 44.58512 | -78.26257 | 28891 ft | 416 kts | 245° |
| 2026-05-04 19:47 | 44.57045 | -78.29777 | 27978 ft | 419 kts | 245° |
| 2026-05-04 19:47 | 44.55572 | -78.33304 | 27225 ft | 418 kts | 244° |
| 2026-05-04 19:48 | 44.54105 | -78.36790 | 26481 ft | 410 kts | 244° |
| 2026-05-04 19:48 | 44.52669 | -78.40197 | 25234 ft | 404 kts | 244° |
| 2026-05-04 19:48 | 44.51244 | -78.43585 | 23944 ft | 401 kts | 244° |
| 2026-05-04 19:48 | 44.49832 | -78.46937 | 22636 ft | 397 kts | 243° |
| 2026-05-04 19:49 | 44.48478 | -78.50150 | 21390 ft | 391 kts | 243° |
| 2026-05-04 19:49 | 44.47111 | -78.53385 | 20704 ft | 371 kts | 243° |
| 2026-05-04 19:49 | 44.45830 | -78.56407 | 20209 ft | 350 kts | 243° |
| 2026-05-04 19:49 | 44.44620 | -78.59265 | 19712 ft | 335 kts | 243° |
| 2026-05-04 19:50 | 44.43443 | -78.62052 | 19231 ft | 331 kts | 243° |
| 2026-05-04 19:50 | 44.42274 | -78.64822 | 18735 ft | 329 kts | 243° |
| 2026-05-04 19:50 | 44.41114 | -78.67567 | 18247 ft | 327 kts | 242° |
| 2026-05-04 19:50 | 44.39971 | -78.70259 | 17730 ft | 325 kts | 242° |
| 2026-05-04 19:51 | 44.38821 | -78.72965 | 17227 ft | 322 kts | 242° |
| 2026-05-04 19:51 | 44.37659 | -78.75702 | 16955 ft | 330 kts | 242° |
| 2026-05-04 19:51 | 44.36510 | -78.78405 | 16558 ft | 326 kts | 242° |
| 2026-05-04 19:51 | 44.35355 | -78.81113 | 16065 ft | 322 kts | 242° |
| 2026-05-04 19:52 | 44.34214 | -78.83785 | 15586 ft | 319 kts | 242° |
| 2026-05-04 19:52 | 44.33083 | -78.86434 | 15097 ft | 316 kts | 242° |
| 2026-05-04 19:52 | 44.31961 | -78.89057 | 14614 ft | 313 kts | 242° |
| 2026-05-04 19:52 | 44.30853 | -78.91651 | 14134 ft | 310 kts | 242° |
| 2026-05-04 19:53 | 44.29754 | -78.94218 | 13667 ft | 307 kts | 242° |
| 2026-05-04 19:53 | 44.28665 | -78.96765 | 13165 ft | 304 kts | 242° |
| 2026-05-04 19:53 | 44.27588 | -78.99277 | 12678 ft | 300 kts | 242° |
| 2026-05-04 19:53 | 44.26524 | -79.01756 | 12209 ft | 296 kts | 242° |
| 2026-05-04 19:54 | 44.25471 | -79.04196 | 11749 ft | 293 kts | 241° |
| 2026-05-04 19:54 | 44.24258 | -79.06478 | 11330 ft | 293 kts | 233° |
| 2026-05-04 19:54 | 44.22896 | -79.08589 | 10864 ft | 292 kts | 231° |
| 2026-05-04 19:54 | 44.21532 | -79.10635 | 10632 ft | 282 kts | 231° |
| 2026-05-04 19:55 | 44.20228 | -79.12586 | 10498 ft | 268 kts | 231° |
| 2026-05-04 19:55 | 44.18987 | -79.14447 | 10357 ft | 256 kts | 231° |
| 2026-05-04 19:55 | 44.17802 | -79.16232 | 10229 ft | 248 kts | 231° |
| 2026-05-04 19:55 | 44.16636 | -79.17993 | 10009 ft | 247 kts | 231° |
| 2026-05-04 19:56 | 44.15441 | -79.19805 | 9854 ft | 261 kts | 231° |
| 2026-05-04 19:56 | 44.14203 | -79.21676 | 9697 ft | 261 kts | 231° |
| 2026-05-04 19:56 | 44.12971 | -79.23531 | 9196 ft | 261 kts | 231° |
| 2026-05-04 19:56 | 44.11739 | -79.25384 | 8813 ft | 258 kts | 231° |
| 2026-05-04 19:57 | 44.10558 | -79.27158 | 8607 ft | 247 kts | 230° |
| 2026-05-04 19:57 | 44.09411 | -79.28879 | 8399 ft | 238 kts | 231° |
| 2026-05-04 19:57 | 44.08368 | -79.30440 | 8184 ft | 231 kts | 230° |
| 2026-05-04 19:57 | 44.07142 | -79.31838 | 8040 ft | 230 kts | 213° |
| 2026-05-04 19:58 | 44.05586 | -79.32491 | 7804 ft | 238 kts | 192° |
| 2026-05-04 19:58 | 44.03921 | -79.32612 | 7509 ft | 239 kts | 187° |
| 2026-05-04 19:58 | 44.02263 | -79.32646 | 7228 ft | 238 kts | 187° |
| 2026-05-04 19:58 | 44.00611 | -79.32683 | 6946 ft | 236 kts | 187° |
| 2026-05-04 19:59 | 43.98976 | -79.32731 | 6658 ft | 234 kts | 188° |
| 2026-05-04 19:59 | 43.97358 | -79.32784 | 6387 ft | 232 kts | 188° |
| 2026-05-04 19:59 | 43.95751 | -79.32843 | 6103 ft | 230 kts | 188° |
| 2026-05-04 19:59 | 43.94171 | -79.32903 | 5840 ft | 228 kts | 188° |
| 2026-05-04 20:00 | 43.92584 | -79.32966 | 5602 ft | 228 kts | 188° |
| 2026-05-04 20:00 | 43.91026 | -79.33167 | 5343 ft | 221 kts | 198° |
| 2026-05-04 20:00 | 43.89677 | -79.34067 | 5119 ft | 213 kts | 221° |
| 2026-05-04 20:00 | 43.88640 | -79.35419 | 4899 ft | 212 kts | 228° |
| 2026-05-04 20:01 | 43.87602 | -79.36954 | 4649 ft | 210 kts | 228° |
| 2026-05-04 20:01 | 43.86606 | -79.38433 | 4420 ft | 210 kts | 228° |
| 2026-05-04 20:01 | 43.86485 | -79.38612 | 4383 ft | 210 kts | 228° |
| 2026-05-04 20:01 | 43.86381 | -79.38766 | 4369 ft | 210 kts | 228° |
| 2026-05-04 20:02 | 43.85354 | -79.40274 | 4134 ft | 209 kts | 228° |
| 2026-05-04 20:02 | 43.84356 | -79.41733 | 3908 ft | 209 kts | 228° |
| 2026-05-04 20:02 | 43.83354 | -79.43194 | 3659 ft | 209 kts | 228° |
| 2026-05-04 20:02 | 43.82353 | -79.44650 | 3429 ft | 208 kts | 229° |
| 2026-05-04 20:03 | 43.81367 | -79.46093 | 3207 ft | 208 kts | 229° |
| 2026-05-04 20:03 | 43.80382 | -79.47535 | 3087 ft | 207 kts | 228° |
| 2026-05-04 20:03 | 43.79391 | -79.48978 | 3079 ft | 208 kts | 228° |
| 2026-05-04 20:03 | 43.78392 | -79.50426 | 3079 ft | 208 kts | 228° |
| 2026-05-04 20:04 | 43.77411 | -79.51862 | 2893 ft | 209 kts | 227° |
| 2026-05-04 20:04 | 43.76425 | -79.53305 | 2604 ft | 207 kts | 227° |
| 2026-05-04 20:04 | 43.75441 | -79.54741 | 2353 ft | 203 kts | 226° |
| 2026-05-04 20:04 | 43.74462 | -79.56160 | 2085 ft | 199 kts | 226° |
| 2026-05-04 20:05 | 43.73638 | -79.57361 | 1824 ft | 187 kts | 226° |
| 2026-05-04 20:05 | 43.72967 | -79.58336 | 1636 ft | 172 kts | 225° |
| 2026-05-04 20:05 | 43.72195 | -79.59461 | 1418 ft | 151 kts | 225° |
| 2026-05-04 20:05 | 43.71515 | -79.60447 | 1214 ft | 137 kts | 226° |
| 2026-05-04 20:06 | 43.70888 | -79.61361 | 1027 ft | 127 kts | 225° |
| 2026-05-04 20:06 | 43.70317 | -79.62213 | 815 ft | 116 kts | 229° |
| 2026-05-04 20:06 | 43.69737 | -79.63047 | 682 ft | 123 kts | 224° |
| 2026-05-04 20:06 | 43.69152 | -79.63897 | 590 ft | 124 kts | 226° |
| 2026-05-04 20:07 | 43.68596 | -79.64713 | 576 ft | 109 kts | 226° |
| 2026-05-04 20:07 | 43.68190 | -79.65287 | 573 ft | 43 kts | 224° |
| 2026-05-04 20:07 | 43.68096 | -79.65396 | 575 ft | 14 kts | 212° |
| 2026-05-04 20:07 | 43.67983 | -79.65459 | 571 ft | 19 kts | 196° |
| 2026-05-04 20:08 | 43.67874 | -79.65479 | 572 ft | 15 kts | 159° |
| 2026-05-04 20:08 | 43.67856 | -79.65368 | 574 ft | 14 kts | 60° |
| 2026-05-04 20:08 | 43.67920 | -79.65266 | 577 ft | 15 kts | 49° |
| 2026-05-04 20:08 | 43.68001 | -79.65152 | 578 ft | 18 kts | 45° |
| 2026-05-04 20:09 | 43.68093 | -79.65019 | 580 ft | 20 kts | 46° |
| 2026-05-04 20:09 | 43.68193 | -79.64874 | 579 ft | 22 kts | 46° |
| 2026-05-04 20:09 | 43.68296 | -79.64724 | 584 ft | 21 kts | 46° |
| 2026-05-04 20:09 | 43.68335 | -79.64623 | 573 ft | 12 kts | 98° |
| 2026-05-04 20:10 | 43.68277 | -79.64525 | 575 ft | 15 kts | 136° |
| 2026-05-04 20:10 | 43.68193 | -79.64415 | 575 ft | 18 kts | 136° |
| 2026-05-04 20:10 | 43.68093 | -79.64286 | 573 ft | 21 kts | 137° |
| 2026-05-04 20:10 | 43.67989 | -79.64151 | 579 ft | 21 kts | 137° |
| 2026-05-04 20:11 | 43.67902 | -79.64039 | 581 ft | 16 kts | 137° |
| 2026-05-04 20:11 | 43.67887 | -79.63947 | 577 ft | 10 kts | 57° |
| 2026-05-04 20:11 | 43.67941 | -79.63874 | 581 ft | 11 kts | 23° |
| 2026-05-04 20:11 | 43.68020 | -79.63882 | 577 ft | 12 kts | 9° |
| 2026-05-04 20:12 | 43.68085 | -79.63817 | 577 ft | 12 kts | 48° |
| 2026-05-04 20:12 | 43.68128 | -79.63736 | 581 ft | 8 kts | 80° |
| 2026-05-04 20:12 | 43.68116 | -79.63689 | 581 ft | 0 kts | 120° |
| 2026-05-04 20:12 | 43.68113 | -79.63682 | 581 ft | 5 kts | 120° |
| 2026-05-04 20:13 | 43.68098 | -79.63654 | 575 ft | 0 kts | 128° |
| 2026-05-04 20:13 | 43.68097 | -79.63654 | 571 ft | 1 kts | 128° |
| 2026-05-04 20:13 | 43.68090 | -79.63642 | 573 ft | 0 kts | 129° |